Time;durP1;ratioP1;P1;durP2;ratioP2;P2;SDS_P1;SDS_P2;PMS_P1;PMS_P2;Temp;Humidity;BMP_temperature;BMP_pressure;BME280_temperature;BME280_humidity;BME280_pressure;Samples;Min_cycle;Max_cycle;Signal;HPM_P1;HPM_P2
2023/12/10 00:01:48;;;;;;;;;;;;;;;2.25;78.28;99279.31;4397193;32;34271;-90
2023/12/10 00:04:19;;;;;;;;;;;;;;;2.29;78.67;99268.25;4380272;32;32886;-91
2023/12/10 00:06:47;;;;;;;;;;;;;;;2.01;79.30;99265.31;4390598;32;34333;-90
2023/12/10 00:09:16;;;;;;;;;;;;;;;2.21;78.57;99273.25;4394128;32;33563;-92
2023/12/10 00:11:45;;;;;;;;;;;;;;;1.90;79.59;99272.81;4400847;32;35407;-92
2023/12/10 00:14:13;;;;;;;;;;;;;;;2.24;78.71;99265.62;4396803;32;33998;-89
2023/12/10 00:16:42;;;;;;;;;;;;;;;2.09;79.59;99250.91;4393255;32;34250;-92
2023/12/10 00:19:10;;;;;;;;;;;;;;;2.02;79.17;99253.37;4392806;32;34873;-92
2023/12/10 00:21:40;;;;;;;;;;;;;;;1.75;81.11;99249.59;4402201;32;33770;-91
2023/12/10 00:24:09;;;;;;;;;;;;;;;2.07;79.63;99244.91;4395300;32;32661;-91
2023/12/10 00:26:38;;;;;;;;;;;;;;;1.93;80.18;99243.88;4397857;32;33918;-90
2023/12/10 00:29:06;;;;;;;;;;;;;;;2.17;79.31;99247.59;4399264;32;34236;-91
2023/12/10 00:31:35;;;;;;;;;;;;;;;1.82;80.88;99248.84;4375789;32;33264;-93
2023/12/10 00:34:03;;;;;;;;;;;;;;;2.22;79.25;99257.06;4403354;32;33371;-91
2023/12/10 00:36:32;;;;;;;;;;;;;;;2.23;78.81;99248.56;4397880;32;33764;-92
2023/12/10 00:39:05;;;;;;;;;;;;;;;2.20;78.75;99253.66;4403924;32;33918;-94
2023/12/10 00:41:33;;;;;;;;;;;;;;;2.08;79.64;99258.59;4390147;32;33852;-93
2023/12/10 00:44:03;;;;;;;;;;;;;;;1.73;81.23;99253.81;4403762;32;33089;-92
2023/12/10 00:46:31;;;;;;;;;;;;;;;1.84;81.22;99247.16;4385253;32;34104;-91
2023/12/10 00:49:00;;;;;;;;;;;;;;;2.01;79.53;99252.53;4398414;32;33544;-90
2023/12/10 00:51:29;;;;;;;;;;;;;;;2.04;79.85;99232.09;4397594;32;34236;-90
2023/12/10 00:53:57;;;;;;;;;;;;;;;2.19;79.49;99236.56;4404246;32;32660;-90
2023/12/10 00:56:31;;;;;;;;;;;;;;;2.28;78.89;99230.69;4404514;32;33802;-91
2023/12/10 00:59:00;;;;;;;;;;;;;;;1.98;80.25;99226.03;4396255;32;33917;-91
2023/12/10 01:01:28;;;;;;;;;;;;;;;2.10;79.05;99226.19;4398795;32;35805;-90
2023/12/10 01:03:57;;;;;;;;;;;;;;;2.21;78.42;99214.41;4398871;32;32657;-90
2023/12/10 01:06:26;;;;;;;;;;;;;;;2.01;79.97;99210.75;4397713;32;33629;-91
2023/12/10 01:08:54;;;;;;;;;;;;;;;1.99;79.59;99215.81;4396866;32;33820;-91
2023/12/10 01:11:23;;;;;;;;;;;;;;;2.01;80.41;99223.53;4398662;32;33795;-91
2023/12/10 01:13:53;;;;;;;;;;;;;;;2.01;80.38;99224.37;4400573;32;33970;-91
2023/12/10 01:16:21;;;;;;;;;;;;;;;2.08;79.95;99220.22;4403920;32;33828;-93
2023/12/10 01:18:50;;;;;;;;;;;;;;;2.02;79.81;99218.41;4407489;32;34361;-92
2023/12/10 01:21:19;;;;;;;;;;;;;;;1.82;81.56;99209.63;4414421;32;33744;-91
2023/12/10 01:23:49;;;;;;;;;;;;;;;2.08;80.00;99217.66;4401325;32;33299;-92
2023/12/10 01:26:18;;;;;;;;;;;;;;;2.17;79.44;99212.62;4399551;32;34310;-91
2023/12/10 01:28:46;;;;;;;;;;;;;;;1.95;80.65;99220.88;4387628;32;34243;-91
2023/12/10 01:31:16;;;;;;;;;;;;;;;2.33;78.60;99208.59;4393354;32;34172;-90
2023/12/10 01:33:45;;;;;;;;;;;;;;;2.28;79.00;99203.41;4396235;32;32765;-90
2023/12/10 01:36:23;;;;;;;;;;;;;;;2.21;79.59;99198.19;4400783;32;34713;-90
2023/12/10 01:38:52;;;;;;;;;;;;;;;2.20;79.71;99199.91;4402431;32;32537;-92
2023/12/10 01:41:21;;;;;;;;;;;;;;;2.55;78.44;99204.56;4398151;32;34159;-92
2023/12/10 01:43:49;;;;;;;;;;;;;;;2.41;78.81;99201.00;4400377;32;33029;-90
2023/12/10 01:46:21;;;;;;;;;;;;;;;2.16;79.36;99187.91;4398313;32;34378;-91
2023/12/10 01:48:51;;;;;;;;;;;;;;;2.43;78.49;99181.38;4406019;32;33903;-91
2023/12/10 01:51:19;;;;;;;;;;;;;;;2.48;78.29;99185.72;4402648;32;34454;-92
2023/12/10 01:53:48;;;;;;;;;;;;;;;2.38;78.98;99181.34;4387807;32;32831;-90
2023/12/10 01:56:16;;;;;;;;;;;;;;;2.23;79.43;99174.34;4394650;32;33604;-92
2023/12/10 01:58:45;;;;;;;;;;;;;;;2.50;78.51;99165.25;4398190;32;34208;-90
2023/12/10 02:01:13;;;;;;;;;;;;;;;2.23;79.11;99166.66;4403277;32;33708;-92
2023/12/10 02:03:44;;;;;;;;;;;;;;;2.64;77.51;99168.81;4384129;32;32129;-91
2023/12/10 02:06:13;;;;;;;;;;;;;;;2.54;78.21;99159.34;4398439;32;33908;-92
2023/12/10 02:08:41;;;;;;;;;;;;;;;2.31;79.01;99165.03;4392501;32;34008;-92
2023/12/10 02:11:10;;;;;;;;;;;;;;;2.34;78.56;99157.41;4389072;32;33046;-91
2023/12/10 02:13:39;;;;;;;;;;;;;;;2.56;77.77;99150.81;4399383;32;34284;-92
2023/12/10 02:16:07;;;;;;;;;;;;;;;2.06;79.36;99158.78;4398347;32;33191;-90
2023/12/10 02:18:36;;;;;;;;;;;;;;;2.65;77.72;99159.44;4398169;32;33822;-90
2023/12/10 02:21:07;;;;;;;;;;;;;;;2.25;79.11;99139.41;4395563;32;34850;-91
2023/12/10 02:23:39;;;;;;;;;;;;;;;2.25;79.17;99139.41;4399602;32;33321;-90
2023/12/10 02:26:09;;;;;;;;;;;;;;;2.41;78.54;99132.72;4397505;32;34311;-91
2023/12/10 02:28:37;;;;;;;;;;;;;;;2.47;78.54;99124.28;4397334;32;34097;-90
2023/12/10 02:31:06;;;;;;;;;;;;;;;2.47;78.19;99124.28;4394615;32;34341;-90
2023/12/10 02:33:35;;;;;;;;;;;;;;;2.29;78.95;99115.53;4403722;32;33075;-90
2023/12/10 02:36:03;;;;;;;;;;;;;;;2.36;78.75;99113.91;4413168;32;33869;-89
2023/12/10 02:38:32;;;;;;;;;;;;;;;2.35;78.42;99110.50;4398035;32;34284;-91
2023/12/10 02:41:01;;;;;;;;;;;;;;;2.33;78.30;99090.84;4401877;32;34263;-91
2023/12/10 02:43:31;;;;;;;;;;;;;;;2.37;78.03;99079.78;4399309;32;33159;-92
2023/12/10 02:45:59;;;;;;;;;;;;;;;2.26;78.57;99069.44;4412577;32;33878;-91
2023/12/10 02:48:28;;;;;;;;;;;;;;;2.06;79.17;99066.69;4397262;32;34822;-90
2023/12/10 02:50:57;;;;;;;;;;;;;;;2.14;78.75;99070.16;4397187;32;34134;-91
2023/12/10 02:53:25;;;;;;;;;;;;;;;2.27;79.12;99067.72;4396526;32;34101;-91
2023/12/10 02:55:57;;;;;;;;;;;;;;;2.00;80.25;99052.94;4402852;32;34496;-90
2023/12/10 02:58:25;;;;;;;;;;;;;;;2.33;78.61;99063.53;4397894;32;34399;-91
2023/12/10 03:00:56;;;;;;;;;;;;;;;2.23;78.57;99053.22;4397672;32;33721;-89
2023/12/10 03:03:24;;;;;;;;;;;;;;;2.54;77.31;99062.87;4393009;32;32470;-91
2023/12/10 03:05:53;;;;;;;;;;;;;;;2.50;77.87;99066.25;4388696;32;33741;-90
2023/12/10 03:08:22;;;;;;;;;;;;;;;2.26;79.10;99061.75;4408629;32;34045;-90
2023/12/10 03:10:52;;;;;;;;;;;;;;;2.32;79.01;99058.38;4403500;32;33784;-91
2023/12/10 03:13:21;;;;;;;;;;;;;;;2.21;79.17;99044.66;4409988;32;33801;-92
2023/12/10 03:15:50;;;;;;;;;;;;;;;2.16;79.71;99046.31;4403048;32;33651;-91
2023/12/10 03:18:19;;;;;;;;;;;;;;;2.20;79.40;99054.03;4407640;32;33720;-90
2023/12/10 03:20:48;;;;;;;;;;;;;;;2.41;78.64;99053.38;4388156;32;33619;-90
2023/12/10 03:23:17;;;;;;;;;;;;;;;2.34;78.89;99057.59;4399449;32;33655;-89
2023/12/10 03:25:45;;;;;;;;;;;;;;;2.52;78.09;99064.56;4409589;32;33168;-89
2023/12/10 03:28:14;;;;;;;;;;;;;;;2.38;78.36;99067.84;4405816;32;34346;-90
2023/12/10 03:30:42;;;;;;;;;;;;;;;2.44;78.75;99066.22;4397164;32;33528;-90
2023/12/10 03:33:11;;;;;;;;;;;;;;;2.27;78.79;99067.72;4402979;32;32776;-90
2023/12/10 03:35:41;;;;;;;;;;;;;;;2.59;78.18;99077.44;4402955;32;34086;-91
2023/12/10 03:38:09;;;;;;;;;;;;;;;2.64;77.57;99091.16;4403742;32;33921;-90
2023/12/10 03:40:38;;;;;;;;;;;;;;;2.63;78.54;99091.97;4408063;32;34739;-89
2023/12/10 03:43:07;;;;;;;;;;;;;;;2.54;78.37;99092.75;4399879;32;33493;-90
2023/12/10 03:45:35;;;;;;;;;;;;;;;2.56;78.45;99089.38;4390538;32;34057;-90
2023/12/10 03:48:04;;;;;;;;;;;;;;;2.72;77.60;99076.69;4404632;32;33333;-89
2023/12/10 03:50:33;;;;;;;;;;;;;;;2.64;78.30;99081.75;4412516;32;34441;-89
2023/12/10 03:53:05;;;;;;;;;;;;;;;2.67;77.77;99086.03;4405358;32;33472;-91
2023/12/10 03:55:34;;;;;;;;;;;;;;;2.89;77.00;99079.37;4403205;32;33922;-91
2023/12/10 03:58:02;;;;;;;;;;;;;;;2.90;77.00;99086.22;4399672;32;34246;-90
2023/12/10 04:00:31;;;;;;;;;;;;;;;2.68;77.86;99069.81;4402662;32;34782;-90
2023/12/10 04:03:00;;;;;;;;;;;;;;;2.63;77.43;99068.91;4397404;32;33951;-90
2023/12/10 04:05:29;;;;;;;;;;;;;;;2.81;76.62;99058.00;4400355;32;35003;-91
2023/12/10 04:07:58;;;;;;;;;;;;;;;2.43;78.35;99064.47;4400915;32;33941;-90
2023/12/10 04:10:28;;;;;;;;;;;;;;;2.48;77.98;99074.75;4403052;32;34273;-89
2023/12/10 04:12:56;;;;;;;;;;;;;;;2.56;78.35;99070.56;4412455;32;33196;-91
2023/12/10 04:15:25;;;;;;;;;;;;;;;2.28;78.90;99069.47;4402568;32;34046;-91
2023/12/10 04:17:53;;;;;;;;;;;;;;;2.56;78.32;99076.56;4396206;32;34400;-90
2023/12/10 04:20:22;;;;;;;;;;;;;;;2.69;77.56;99071.56;4401055;32;34746;-90
2023/12/10 04:22:50;;;;;;;;;;;;;;;2.63;77.59;99071.47;4405804;32;33733;-91
2023/12/10 04:25:19;;;;;;;;;;;;;;;2.78;76.63;99069.94;4400186;32;34678;-90
2023/12/10 04:27:48;;;;;;;;;;;;;;;2.77;77.00;99068.19;4402018;32;34261;-90
2023/12/10 04:30:19;;;;;;;;;;;;;;;2.59;76.98;99062.94;4394393;32;33440;-91
2023/12/10 04:32:48;;;;;;;;;;;;;;;2.51;78.03;99055.19;4402353;32;32890;-91
2023/12/10 04:35:17;;;;;;;;;;;;;;;2.69;77.06;99049.34;4404679;32;33531;-92
2023/12/10 04:37:45;;;;;;;;;;;;;;;2.64;77.37;99058.69;4400364;32;33864;-91
2023/12/10 04:40:14;;;;;;;;;;;;;;;2.31;78.61;99061.81;4399886;32;33781;-91
2023/12/10 04:42:42;;;;;;;;;;;;;;;2.37;78.38;99064.44;4400360;32;32768;-90
2023/12/10 04:45:12;;;;;;;;;;;;;;;2.64;77.33;99060.41;4405213;32;34735;-91
2023/12/10 04:47:41;;;;;;;;;;;;;;;2.49;77.97;99067.12;4398264;32;33314;-91
2023/12/10 04:50:10;;;;;;;;;;;;;;;2.82;76.26;99070.78;4400044;32;33949;-90
2023/12/10 04:52:38;;;;;;;;;;;;;;;2.77;76.55;99075.88;4400275;32;34082;-91
2023/12/10 04:55:07;;;;;;;;;;;;;;;2.70;76.50;99070.69;4395073;32;34281;-91
2023/12/10 04:57:35;;;;;;;;;;;;;;;2.42;77.60;99077.28;4399594;32;33341;-91
2023/12/10 05:00:08;;;;;;;;;;;;;;;2.74;76.93;99080.97;4399846;32;34120;-90
2023/12/10 05:02:38;;;;;;;;;;;;;;;2.71;77.44;99082.66;4384972;32;33467;-91
2023/12/10 05:05:07;;;;;;;;;;;;;;;2.92;76.11;99075.16;4390797;32;33350;-90
2023/12/10 05:07:36;;;;;;;;;;;;;;;2.55;77.57;99074.84;4404626;32;34276;-90
2023/12/10 05:10:05;;;;;;;;;;;;;;;2.69;76.64;99064.72;4385371;32;32793;-91
2023/12/10 05:12:34;;;;;;;;;;;;;;;2.87;75.97;99070.81;4400128;32;33402;-91
2023/12/10 05:15:03;;;;;;;;;;;;;;;2.92;75.37;99064.03;4399417;32;33428;-90
2023/12/10 05:17:34;;;;;;;;;;;;;;;2.88;75.83;99060.59;4403882;32;34689;-91
2023/12/10 05:20:05;;;;;;;;;;;;;;;2.67;76.40;99056.16;4399722;32;34674;-92
2023/12/10 05:22:34;;;;;;;;;;;;;;;2.63;77.12;99054.41;4399519;32;32867;-92
2023/12/10 05:25:03;;;;;;;;;;;;;;;2.62;77.47;99059.53;4399315;32;34118;-92
2023/12/10 05:27:32;;;;;;;;;;;;;;;2.71;76.59;99057.91;4399748;32;33276;-91
2023/12/10 05:30:01;;;;;;;;;;;;;;;2.80;76.43;99051.97;4403411;32;34095;-91
2023/12/10 05:32:30;;;;;;;;;;;;;;;2.63;77.40;99051.84;4398467;32;32876;-93
2023/12/10 05:34:59;;;;;;;;;;;;;;;2.68;76.77;99065.56;4385534;32;32565;-90
2023/12/10 05:37:29;;;;;;;;;;;;;;;2.56;76.92;99062.87;4384974;32;33967;-92
2023/12/10 05:39:57;;;;;;;;;;;;;;;2.84;76.48;99073.38;4402844;32;33886;-92
2023/12/10 05:42:27;;;;;;;;;;;;;;;2.85;76.60;99069.94;4399193;32;34391;-92
2023/12/10 05:44:56;;;;;;;;;;;;;;;2.78;76.41;99071.63;4399009;32;34257;-92
2023/12/10 05:47:25;;;;;;;;;;;;;;;2.92;75.56;99070.03;4397152;32;33694;-91
2023/12/10 05:49:54;;;;;;;;;;;;;;;2.69;76.63;99069.00;4388480;32;33366;-91
2023/12/10 05:52:22;;;;;;;;;;;;;;;2.73;76.96;99068.16;4390538;32;32756;-92
2023/12/10 05:54:52;;;;;;;;;;;;;;;2.47;77.33;99068.78;4385085;32;32386;-91
2023/12/10 05:57:21;;;;;;;;;;;;;;;2.74;77.28;99062.19;4399316;32;33313;-92
2023/12/10 05:59:49;;;;;;;;;;;;;;;2.83;76.54;99066.53;4398004;32;33277;-93
2023/12/10 06:02:20;;;;;;;;;;;;;;;2.86;76.29;99071.69;4404061;32;32892;-92
2023/12/10 06:04:49;;;;;;;;;;;;;;;2.70;76.90;99070.69;4399865;32;34499;-93
2023/12/10 06:07:18;;;;;;;;;;;;;;;2.77;77.31;99073.31;4398528;32;33518;-92
2023/12/10 06:09:46;;;;;;;;;;;;;;;2.84;76.48;99071.66;4398203;32;33646;-92
2023/12/10 06:12:16;;;;;;;;;;;;;;;2.99;76.58;99064.09;4404789;32;32908;-93
2023/12/10 06:14:45;;;;;;;;;;;;;;;2.92;76.11;99067.47;4398970;32;34229;-92
2023/12/10 06:17:13;;;;;;;;;;;;;;;2.76;76.59;99070.75;4384181;32;33641;-92
2023/12/10 06:19:42;;;;;;;;;;;;;;;2.92;76.11;99064.03;4384740;32;33824;-93
2023/12/10 06:22:11;;;;;;;;;;;;;;;2.82;76.43;99067.38;4398883;32;33867;-93
2023/12/10 06:24:39;;;;;;;;;;;;;;;2.85;76.76;99073.41;4404450;32;33255;-92
2023/12/10 06:27:08;;;;;;;;;;;;;;;3.06;75.58;99076.94;4385251;32;34514;-93
2023/12/10 06:29:39;;;;;;;;;;;;;;;2.99;75.67;99074.34;4398112;32;33510;-93
2023/12/10 06:32:08;;;;;;;;;;;;;;;2.85;75.93;99075.97;4398356;32;33662;-93
2023/12/10 06:34:36;;;;;;;;;;;;;;;3.03;75.53;99082.91;4404323;32;33512;-92
2023/12/10 06:37:05;;;;;;;;;;;;;;;3.03;75.96;99088.03;4380200;32;32997;-93
2023/12/10 06:39:34;;;;;;;;;;;;;;;3.15;75.58;99090.69;4384703;32;32847;-93
2023/12/10 06:42:02;;;;;;;;;;;;;;;3.05;75.60;99091.47;4384211;32;33001;-92
2023/12/10 06:44:34;;;;;;;;;;;;;;;2.96;75.81;99102.50;4392404;32;33085;-93
2023/12/10 06:47:25;;;;;;;;;;;;;;;2.91;76.09;99100.75;4392228;32;33389;-92
2023/12/10 06:50:13;;;;;;;;;;;;;;;2.78;76.40;99105.78;4406427;32;34363;-93
2023/12/10 06:53:03;;;;;;;;;;;;;;;3.03;75.62;99113.66;4396851;32;32739;-93
2023/12/10 06:55:51;;;;;;;;;;;;;;;2.93;76.17;99119.56;4396924;32;33957;-93
2023/12/10 06:58:50;;;;;;;;;;;;;;;3.19;75.01;99123.19;4387137;32;32629;-93
2023/12/10 07:01:39;;;;;;;;;;;;;;;2.99;75.47;99128.12;4400116;32;33250;-93
2023/12/10 07:05:10;;;;;;;;;;;;;;;2.96;75.90;99135.81;4400274;32;33654;-93
2023/12/10 07:07:59;;;;;;;;;;;;;;;3.10;75.56;99132.53;4402958;32;33556;-95
2023/12/10 07:10:56;;;;;;;;;;;;;;;2.88;76.53;99127.22;4393523;32;33947;-93
2023/12/10 07:13:27;;;;;;;;;;;;;;;2.90;76.70;99128.09;4400307;32;33320;-94
2023/12/10 07:16:00;;;;;;;;;;;;;;;2.94;76.43;99134.09;4410117;32;32412;-93
2023/12/10 07:18:29;;;;;;;;;;;;;;;3.18;76.01;99130.84;4385847;32;33321;-93
2023/12/10 07:21:39;;;;;;;;;;;;;;;3.02;76.68;99134.13;4384579;32;32516;-93
2023/12/10 07:24:30;;;;;;;;;;;;;;;3.07;76.50;99135.91;4383611;32;32672;-93
2023/12/10 07:27:42;;;;;;;;;;;;;;;3.25;75.92;99142.03;4398712;32;33878;-93
2023/12/10 07:30:20;;;;;;;;;;;;;;;3.21;75.82;99143.69;4396699;32;33681;-93
2023/12/10 07:33:10;;;;;;;;;;;;;;;3.28;75.98;99140.31;4389499;32;34178;-93
2023/12/10 07:35:59;;;;;;;;;;;;;;;3.14;76.16;99141.94;4404713;32;34794;-93
2023/12/10 07:38:32;;;;;;;;;;;;;;;3.32;75.46;99141.22;4404780;32;33894;-93
2023/12/10 07:41:01;;;;;;;;;;;;;;;3.55;74.94;99139.69;4385835;32;34384;-93
2023/12/10 07:43:50;;;;;;;;;;;;;;;3.54;74.88;99144.78;4389104;32;32755;-92
2023/12/10 07:46:20;;;;;;;;;;;;;;;3.32;75.94;99151.47;4399494;32;34709;-92
2023/12/10 07:48:48;;;;;;;;;;;;;;;3.49;75.25;99149.88;4408688;32;32977;-92
2023/12/10 07:51:17;;;;;;;;;;;;;;;3.37;75.70;99154.94;4402087;32;34669;-90
2023/12/10 07:53:47;;;;;;;;;;;;;;;3.41;76.08;99152.41;4397531;32;34865;-88
2023/12/10 07:56:15;;;;;;;;;;;;;;;3.40;75.81;99153.22;4398636;32;33713;-88
2023/12/10 07:58:44;;;;;;;;;;;;;;;3.53;75.44;99159.31;4397708;32;31843;-86
2023/12/10 08:01:12;;;;;;;;;;;;;;;3.52;75.46;99147.34;4402408;32;34270;-86
2023/12/10 08:03:41;;;;;;;;;;;;;;;3.45;76.40;99158.41;4394722;32;33639;-87
2023/12/10 08:06:11;;;;;;;;;;;;;;;3.61;75.87;99165.34;4400514;32;34350;-88
2023/12/10 08:08:40;;;;;;;;;;;;;;;3.36;76.88;99166.91;4397016;32;32443;-88
2023/12/10 08:11:10;;;;;;;;;;;;;;;3.22;77.40;99171.06;4404791;32;33717;-87
2023/12/10 08:13:38;;;;;;;;;;;;;;;3.20;76.72;99171.03;4397017;32;33848;-87
2023/12/10 08:16:07;;;;;;;;;;;;;;;3.13;76.81;99170.97;4399009;32;33675;-89
2023/12/10 08:18:35;;;;;;;;;;;;;;;3.02;77.28;99177.69;4404924;32;34310;-89
2023/12/10 08:21:04;;;;;;;;;;;;;;;3.17;77.54;99181.28;4404207;32;33821;-87
2023/12/10 08:23:32;;;;;;;;;;;;;;;3.23;77.34;99180.44;4404305;32;34406;-86
2023/12/10 08:26:01;;;;;;;;;;;;;;;3.30;76.76;99177.09;4400729;32;34219;-88
2023/12/10 08:28:31;;;;;;;;;;;;;;;3.60;75.62;99181.59;4395703;32;33526;-88
2023/12/10 08:30:59;;;;;;;;;;;;;;;3.54;75.74;99178.13;4397357;32;35210;-89
2023/12/10 08:33:29;;;;;;;;;;;;;;;3.56;76.43;99184.97;4401454;32;34271;-86
2023/12/10 08:35:58;;;;;;;;;;;;;;;3.58;76.14;99182.44;4396912;32;34415;-86
2023/12/10 08:38:26;;;;;;;;;;;;;;;3.75;76.28;99185.97;4398586;32;33044;-86
2023/12/10 08:40:55;;;;;;;;;;;;;;;3.63;76.45;99185.87;4385377;32;33249;-85
2023/12/10 08:43:23;;;;;;;;;;;;;;;3.82;75.71;99187.72;4404925;32;33914;-85
2023/12/10 08:45:54;;;;;;;;;;;;;;;3.79;75.99;99197.09;4399134;32;34603;-85
2023/12/10 08:48:23;;;;;;;;;;;;;;;3.82;75.97;99199.69;4399414;32;32572;-84
2023/12/10 08:50:52;;;;;;;;;;;;;;;3.80;76.28;99199.69;4398675;32;34501;-85
2023/12/10 08:53:20;;;;;;;;;;;;;;;3.68;76.21;99199.59;4396453;32;34952;-84
2023/12/10 08:55:49;;;;;;;;;;;;;;;4.00;75.23;99209.19;4398460;32;33321;-85
2023/12/10 08:58:18;;;;;;;;;;;;;;;4.17;74.64;99205.00;4399924;32;32547;-86
2023/12/10 09:00:46;;;;;;;;;;;;;;;3.95;76.06;99219.44;4398727;32;33809;-86
2023/12/10 09:03:16;;;;;;;;;;;;;;;4.02;76.08;99222.91;4398852;32;35520;-86
2023/12/10 09:05:45;;;;;;;;;;;;;;;4.15;75.53;99232.38;4405010;32;34564;-86
2023/12/10 09:08:13;;;;;;;;;;;;;;;4.38;74.37;99223.94;4398514;32;32874;-85
2023/12/10 09:10:42;;;;;;;;;;;;;;;4.23;74.85;99222.16;4399069;32;33996;-86
2023/12/10 09:13:10;;;;;;;;;;;;;;;4.31;74.95;99233.31;4398284;32;34702;-86
2023/12/10 09:15:38;;;;;;;;;;;;;;;4.24;75.33;99235.00;4401947;32;33963;-87
2023/12/10 09:18:07;;;;;;;;;;;;;;;4.37;74.92;99232.47;4403923;32;33321;-87
2023/12/10 09:20:37;;;;;;;;;;;;;;;4.39;75.09;99236.75;4399371;32;33787;-87
2023/12/10 09:23:06;;;;;;;;;;;;;;;4.39;74.76;99225.63;4397944;32;33977;-87
2023/12/10 09:25:34;;;;;;;;;;;;;;;4.61;74.49;99224.84;4396398;32;34189;-86
2023/12/10 09:28:03;;;;;;;;;;;;;;;4.66;74.61;99224.88;4406811;32;33291;-87
2023/12/10 09:30:35;;;;;;;;;;;;;;;4.50;74.43;99229.13;4372297;32;781317;-87
2023/12/10 09:33:05;;;;;;;;;;;;;;;4.51;74.35;99233.41;4398773;32;33846;-87
2023/12/10 09:35:36;;;;;;;;;;;;;;;4.49;74.40;99229.94;4398972;32;33522;-86
2023/12/10 09:38:06;;;;;;;;;;;;;;;4.75;73.75;99231.78;4402912;32;34165;-87
2023/12/10 09:40:34;;;;;;;;;;;;;;;4.78;73.75;99224.06;4390310;32;35171;-87
2023/12/10 09:43:03;;;;;;;;;;;;;;;4.86;73.58;99222.38;4398657;32;34690;-86
2023/12/10 09:45:32;;;;;;;;;;;;;;;4.92;73.68;99228.38;4398053;32;34693;-86
2023/12/10 09:48:00;;;;;;;;;;;;;;;5.07;72.44;99237.84;4399223;32;33588;-87
2023/12/10 09:50:29;;;;;;;;;;;;;;;5.02;71.73;99229.25;4404509;32;34328;-87
2023/12/10 09:52:57;;;;;;;;;;;;;;;5.18;70.47;99230.16;4395685;32;32266;-85
2023/12/10 09:55:27;;;;;;;;;;;;;;;5.17;69.73;99235.28;4396278;32;34666;-86
2023/12/10 09:57:56;;;;;;;;;;;;;;;5.13;70.75;99240.41;4397448;32;35453;-85
2023/12/10 10:00:24;;;;;;;;;;;;;;;5.26;70.43;99235.28;4405637;32;33236;-87
2023/12/10 10:02:55;;;;;;;;;;;;;;;5.32;70.53;99238.72;4396663;32;34967;-85
2023/12/10 10:05:23;;;;;;;;;;;;;;;5.39;70.65;99246.44;4398751;32;33433;-86
2023/12/10 10:07:52;;;;;;;;;;;;;;;5.46;70.49;99240.44;4398681;32;33215;-87
2023/12/10 10:10:22;;;;;;;;;;;;;;;5.59;69.69;99238.75;4395285;32;33730;-86
2023/12/10 10:12:52;;;;;;;;;;;;;;;5.52;66.78;99235.31;4399802;32;34758;-86
2023/12/10 10:15:28;;;;;;;;;;;;;;;5.54;66.57;99236.16;4396316;32;34601;-85
2023/12/10 10:17:58;;;;;;;;;;;;;;;5.46;65.68;99231.03;4399244;32;33129;-88
2023/12/10 10:20:27;;;;;;;;;;;;;;;5.40;65.72;99225.00;4399448;32;34594;-85
2023/12/10 10:22:55;;;;;;;;;;;;;;;5.26;66.84;99230.16;4403077;32;34056;-87
2023/12/10 10:25:24;;;;;;;;;;;;;;;5.34;66.01;99231.03;4401018;32;33742;-88
2023/12/10 10:27:54;;;;;;;;;;;;;;;5.08;66.41;99233.56;4399154;32;32952;-86
2023/12/10 10:30:22;;;;;;;;;;;;;;;4.99;67.31;99234.41;4397099;32;34890;-86
2023/12/10 10:32:51;;;;;;;;;;;;;;;5.15;66.22;99237.88;4399646;32;35043;-87
2023/12/10 10:35:20;;;;;;;;;;;;;;;4.95;67.12;99237.81;4406252;32;34722;-87
2023/12/10 10:37:48;;;;;;;;;;;;;;;5.16;66.29;99236.16;4400795;32;34007;-86
2023/12/10 10:40:17;;;;;;;;;;;;;;;5.03;66.73;99245.56;4400661;32;33605;-86
2023/12/10 10:42:45;;;;;;;;;;;;;;;4.76;67.57;99249.78;4397270;32;34383;-86
2023/12/10 10:45:15;;;;;;;;;;;;;;;4.78;68.16;99252.31;4395930;32;34089;-87
2023/12/10 10:47:44;;;;;;;;;;;;;;;4.74;68.54;99248.91;4397589;32;33077;-87
2023/12/10 10:50:13;;;;;;;;;;;;;;;4.74;68.77;99245.47;4397124;32;34494;-87
2023/12/10 10:52:52;;;;;;;;;;;;;;;4.85;68.85;99248.91;4400193;32;33918;-88
2023/12/10 10:55:20;;;;;;;;;;;;;;;4.79;68.73;99246.34;4401854;32;33518;-84
2023/12/10 10:57:49;;;;;;;;;;;;;;;4.90;68.17;99242.06;4405310;32;33194;-87
2023/12/10 11:00:35;;;;;;;;;;;;;;;5.00;67.25;99259.25;4400666;32;34105;-85
2023/12/10 11:03:05;;;;;;;;;;;;;;;4.74;67.82;99259.19;4399874;32;33912;-87
2023/12/10 11:05:34;;;;;;;;;;;;;;;4.67;68.48;99255.72;4398743;32;34030;-86
2023/12/10 11:08:04;;;;;;;;;;;;;;;4.74;68.44;99241.19;4405492;32;32767;-87
2023/12/10 11:10:34;;;;;;;;;;;;;;;4.85;67.49;99252.34;4399986;32;33815;-87
2023/12/10 11:13:04;;;;;;;;;;;;;;;4.78;67.62;99249.75;4400699;32;34909;-87
2023/12/10 11:15:34;;;;;;;;;;;;;;;4.77;67.35;99253.19;4398653;32;33938;-86
2023/12/10 11:18:03;;;;;;;;;;;;;;;4.45;68.24;99248.78;4400478;32;33802;-86
2023/12/10 11:20:33;;;;;;;;;;;;;;;4.39;69.83;99248.75;4404002;32;34699;-86
2023/12/10 11:23:02;;;;;;;;;;;;;;;4.55;69.54;99253.13;4397765;32;33620;-86
2023/12/10 11:25:30;;;;;;;;;;;;;;;4.42;70.33;99252.22;4395519;32;33794;-86
2023/12/10 11:27:59;;;;;;;;;;;;;;;4.65;68.86;99251.44;4399546;32;34010;-86
2023/12/10 11:30:28;;;;;;;;;;;;;;;4.44;69.04;99265.03;4400621;32;35604;-86
2023/12/10 11:32:58;;;;;;;;;;;;;;;4.38;69.63;99262.47;4394023;32;34461;-87
2023/12/10 11:35:26;;;;;;;;;;;;;;;4.40;69.86;99273.59;4394972;32;33804;-86
2023/12/10 11:37:55;;;;;;;;;;;;;;;4.06;70.42;99275.97;4397061;32;33487;-86
2023/12/10 11:40:24;;;;;;;;;;;;;;;4.03;70.86;99284.50;4400175;32;33748;-87
2023/12/10 11:42:52;;;;;;;;;;;;;;;4.04;71.86;99283.66;4405536;32;33961;-88
2023/12/10 11:45:21;;;;;;;;;;;;;;;4.33;70.67;99274.41;4400169;32;33895;-87
2023/12/10 11:47:51;;;;;;;;;;;;;;;4.31;69.91;99268.41;4400636;32;33910;-87
2023/12/10 11:50:22;;;;;;;;;;;;;;;4.05;70.33;99277.66;4400737;32;33480;-87
2023/12/10 11:52:50;;;;;;;;;;;;;;;3.81;71.76;99288.62;4405725;32;33999;-87
2023/12/10 11:55:19;;;;;;;;;;;;;;;3.96;71.14;99294.72;4399178;32;33905;-87
2023/12/10 11:57:47;;;;;;;;;;;;;;;3.97;71.11;99299.87;4399090;32;33321;-88
2023/12/10 12:00:16;;;;;;;;;;;;;;;3.98;71.46;99300.72;4398394;32;33670;-88
2023/12/10 12:02:46;;;;;;;;;;;;;;;4.04;71.23;99293.94;4404278;32;34058;-88
2023/12/10 12:05:14;;;;;;;;;;;;;;;4.21;71.20;99301.75;4399002;32;34307;-87
2023/12/10 12:07:48;;;;;;;;;;;;;;;4.18;71.10;99300.84;4399583;32;33645;-86
2023/12/10 12:10:17;;;;;;;;;;;;;;;3.93;70.88;99307.53;4399834;32;34524;-87
2023/12/10 12:12:47;;;;;;;;;;;;;;;3.77;71.40;99304.84;4400523;32;33559;-87
2023/12/10 12:15:16;;;;;;;;;;;;;;;3.88;72.40;99314.34;4405934;32;33595;-87
2023/12/10 12:17:45;;;;;;;;;;;;;;;4.02;71.88;99311.03;4400728;32;32767;-87
2023/12/10 12:20:14;;;;;;;;;;;;;;;4.27;70.80;99313.75;4400086;32;34053;-87
2023/12/10 12:22:43;;;;;;;;;;;;;;;3.96;71.60;99318.69;4400614;32;34616;-87
2023/12/10 12:25:17;;;;;;;;;;;;;;;4.13;71.40;99317.94;4405882;32;33793;-87
2023/12/10 12:27:46;;;;;;;;;;;;;;;4.19;70.86;99313.69;4400302;32;33065;-88
2023/12/10 12:30:16;;;;;;;;;;;;;;;4.02;70.67;99325.56;4389825;32;34076;-87
2023/12/10 12:32:45;;;;;;;;;;;;;;;3.73;72.60;99333.88;4386784;32;34922;-87
2023/12/10 12:35:14;;;;;;;;;;;;;;;3.77;72.26;99330.50;4400123;32;33626;-87
2023/12/10 12:37:43;;;;;;;;;;;;;;;3.80;71.84;99329.69;4405617;32;34596;-87
2023/12/10 12:40:14;;;;;;;;;;;;;;;3.77;72.49;99332.19;4399806;32;33894;-88
2023/12/10 12:42:44;;;;;;;;;;;;;;;3.68;72.94;99335.56;4399995;32;33620;-87
2023/12/10 12:45:13;;;;;;;;;;;;;;;3.59;74.21;99327.78;4400019;32;33274;-88
2023/12/10 12:47:41;;;;;;;;;;;;;;;3.73;72.92;99326.19;4405879;32;32768;-87
2023/12/10 12:50:11;;;;;;;;;;;;;;;3.91;72.32;99340.88;4397353;32;33744;-88
2023/12/10 12:52:39;;;;;;;;;;;;;;;3.94;72.44;99338.34;4399140;32;33995;-88
2023/12/10 12:55:08;;;;;;;;;;;;;;;4.00;71.92;99345.22;4391500;32;33999;-86
2023/12/10 12:57:37;;;;;;;;;;;;;;;3.69;73.52;99346.66;4395290;32;33080;-86
2023/12/10 13:00:08;;;;;;;;;;;;;;;3.95;72.70;99350.31;4398186;32;33901;-87
2023/12/10 13:02:37;;;;;;;;;;;;;;;3.91;71.97;99350.28;4393988;32;33904;-87
2023/12/10 13:05:06;;;;;;;;;;;;;;;3.78;72.69;99357.03;4397553;32;33637;-88
2023/12/10 13:07:34;;;;;;;;;;;;;;;4.02;72.01;99362.34;4392608;32;33611;-87
2023/12/10 13:10:03;;;;;;;;;;;;;;;3.88;72.54;99350.25;4401974;32;34463;-88
2023/12/10 13:12:32;;;;;;;;;;;;;;;3.92;72.08;99359.72;4395086;32;34342;-87
2023/12/10 13:15:01;;;;;;;;;;;;;;;3.79;73.52;99346.78;4396167;32;34091;-87